sensor_id;sensor_type;location;lat;lon;timestamp;P1;durP1;ratioP1;P2;durP2;ratioP2
77589;SDS011;66746;51.328;12.332;2023-07-13T00:00:04;1.52;;;0.98;;
77589;SDS011;66746;51.328;12.332;2023-07-13T00:02:31;2.97;;;1.15;;
77589;SDS011;66746;51.328;12.332;2023-07-13T00:04:58;2.20;;;1.35;;
77589;SDS011;66746;51.328;12.332;2023-07-13T00:07:30;2.50;;;1.05;;
77589;SDS011;66746;51.328;12.332;2023-07-13T00:09:58;4.70;;;1.83;;
77589;SDS011;66746;51.328;12.332;2023-07-13T00:12:30;1.52;;;0.88;;
77589;SDS011;66746;51.328;12.332;2023-07-13T00:15:03;2.33;;;1.45;;
77589;SDS011;66746;51.328;12.332;2023-07-13T00:17:39;3.60;;;2.17;;
77589;SDS011;66746;51.328;12.332;2023-07-13T00:20:10;5.80;;;3.50;;
77589;SDS011;66746;51.328;12.332;2023-07-13T00:22:46;4.88;;;3.28;;
77589;SDS011;66746;51.328;12.332;2023-07-13T00:25:15;6.43;;;4.20;;
77589;SDS011;66746;51.328;12.332;2023-07-13T00:27:43;6.05;;;4.22;;
77589;SDS011;66746;51.328;12.332;2023-07-13T00:30:10;4.68;;;2.95;;
77589;SDS011;66746;51.328;12.332;2023-07-13T00:32:42;4.10;;;2.90;;
77589;SDS011;66746;51.328;12.332;2023-07-13T00:35:12;4.10;;;2.03;;
77589;SDS011;66746;51.328;12.332;2023-07-13T00:37:46;3.30;;;2.67;;
77589;SDS011;66746;51.328;12.332;2023-07-13T00:40:22;3.33;;;2.05;;
77589;SDS011;66746;51.328;12.332;2023-07-13T00:42:51;3.13;;;1.55;;
77589;SDS011;66746;51.328;12.332;2023-07-13T00:48:33;4.10;;;1.73;;
77589;SDS011;66746;51.328;12.332;2023-07-13T00:51:02;4.15;;;1.63;;
77589;SDS011;66746;51.328;12.332;2023-07-13T00:53:30;2.85;;;1.08;;
77589;SDS011;66746;51.328;12.332;2023-07-13T00:56:02;2.67;;;1.63;;
77589;SDS011;66746;51.328;12.332;2023-07-13T00:58:36;2.17;;;1.20;;
77589;SDS011;66746;51.328;12.332;2023-07-13T01:01:03;4.05;;;1.35;;
77589;SDS011;66746;51.328;12.332;2023-07-13T01:03:34;3.78;;;1.50;;
77589;SDS011;66746;51.328;12.332;2023-07-13T01:06:06;2.40;;;1.33;;
77589;SDS011;66746;51.328;12.332;2023-07-13T01:08:37;4.70;;;1.25;;
77589;SDS011;66746;51.328;12.332;2023-07-13T01:11:06;3.33;;;1.42;;
77589;SDS011;66746;51.328;12.332;2023-07-13T01:13:38;2.13;;;1.00;;
77589;SDS011;66746;51.328;12.332;2023-07-13T01:16:11;1.98;;;1.33;;
77589;SDS011;66746;51.328;12.332;2023-07-13T01:18:41;3.03;;;1.13;;
77589;SDS011;66746;51.328;12.332;2023-07-13T01:21:18;3.92;;;1.10;;
77589;SDS011;66746;51.328;12.332;2023-07-13T01:23:49;3.45;;;1.45;;
77589;SDS011;66746;51.328;12.332;2023-07-13T01:26:16;3.05;;;1.25;;
77589;SDS011;66746;51.328;12.332;2023-07-13T01:28:43;3.20;;;1.30;;
77589;SDS011;66746;51.328;12.332;2023-07-13T01:31:12;2.03;;;1.48;;
77589;SDS011;66746;51.328;12.332;2023-07-13T01:33:39;3.15;;;1.42;;
77589;SDS011;66746;51.328;12.332;2023-07-13T01:36:14;3.45;;;1.23;;
77589;SDS011;66746;51.328;12.332;2023-07-13T01:38:45;5.10;;;1.63;;
77589;SDS011;66746;51.328;12.332;2023-07-13T01:41:11;1.73;;;1.15;;
77589;SDS011;66746;51.328;12.332;2023-07-13T01:43:38;3.92;;;1.65;;
77589;SDS011;66746;51.328;12.332;2023-07-13T01:46:06;3.15;;;1.65;;
77589;SDS011;66746;51.328;12.332;2023-07-13T01:48:49;2.97;;;2.75;;
77589;SDS011;66746;51.328;12.332;2023-07-13T01:51:15;3.20;;;1.08;;
77589;SDS011;66746;51.328;12.332;2023-07-13T01:53:45;3.15;;;1.73;;
77589;SDS011;66746;51.328;12.332;2023-07-13T01:56:12;2.35;;;1.40;;
77589;SDS011;66746;51.328;12.332;2023-07-13T01:58:39;3.22;;;0.95;;
77589;SDS011;66746;51.328;12.332;2023-07-13T02:01:06;3.08;;;0.90;;
77589;SDS011;66746;51.328;12.332;2023-07-13T02:03:33;1.98;;;1.00;;
77589;SDS011;66746;51.328;12.332;2023-07-13T02:06:00;2.63;;;0.95;;
77589;SDS011;66746;51.328;12.332;2023-07-13T02:08:26;3.35;;;1.20;;
77589;SDS011;66746;51.328;12.332;2023-07-13T02:10:54;3.15;;;1.25;;
77589;SDS011;66746;51.328;12.332;2023-07-13T02:13:21;2.58;;;1.55;;
77589;SDS011;66746;51.328;12.332;2023-07-13T02:15:49;3.67;;;1.38;;
77589;SDS011;66746;51.328;12.332;2023-07-13T02:18:16;2.45;;;1.17;;
77589;SDS011;66746;51.328;12.332;2023-07-13T02:20:43;3.83;;;1.50;;
77589;SDS011;66746;51.328;12.332;2023-07-13T02:23:10;2.80;;;1.50;;
77589;SDS011;66746;51.328;12.332;2023-07-13T02:25:38;3.33;;;1.20;;
77589;SDS011;66746;51.328;12.332;2023-07-13T02:28:06;5.30;;;1.13;;
77589;SDS011;66746;51.328;12.332;2023-07-13T02:30:33;2.38;;;1.05;;
77589;SDS011;66746;51.328;12.332;2023-07-13T02:33:00;2.35;;;1.20;;
77589;SDS011;66746;51.328;12.332;2023-07-13T02:35:26;2.63;;;1.45;;
77589;SDS011;66746;51.328;12.332;2023-07-13T02:37:53;3.25;;;1.88;;
77589;SDS011;66746;51.328;12.332;2023-07-13T02:40:20;4.82;;;1.30;;
77589;SDS011;66746;51.328;12.332;2023-07-13T02:42:46;3.15;;;1.92;;
77589;SDS011;66746;51.328;12.332;2023-07-13T02:45:14;5.82;;;1.70;;
77589;SDS011;66746;51.328;12.332;2023-07-13T02:47:41;3.53;;;1.48;;
77589;SDS011;66746;51.328;12.332;2023-07-13T02:50:08;3.08;;;1.67;;
77589;SDS011;66746;51.328;12.332;2023-07-13T02:52:35;2.85;;;1.10;;
77589;SDS011;66746;51.328;12.332;2023-07-13T02:55:02;3.13;;;1.85;;
77589;SDS011;66746;51.328;12.332;2023-07-13T02:57:29;2.92;;;1.60;;
77589;SDS011;66746;51.328;12.332;2023-07-13T02:59:55;6.30;;;1.90;;
77589;SDS011;66746;51.328;12.332;2023-07-13T03:02:23;3.38;;;1.85;;
77589;SDS011;66746;51.328;12.332;2023-07-13T03:04:50;4.07;;;1.42;;
77589;SDS011;66746;51.328;12.332;2023-07-13T03:07:16;2.10;;;1.63;;
77589;SDS011;66746;51.328;12.332;2023-07-13T03:09:46;5.03;;;2.17;;
77589;SDS011;66746;51.328;12.332;2023-07-13T03:12:12;2.00;;;1.42;;
77589;SDS011;66746;51.328;12.332;2023-07-13T03:14:39;2.67;;;1.88;;
77589;SDS011;66746;51.328;12.332;2023-07-13T03:17:07;3.50;;;1.90;;
77589;SDS011;66746;51.328;12.332;2023-07-13T03:19:39;3.05;;;1.67;;
77589;SDS011;66746;51.328;12.332;2023-07-13T03:22:06;3.85;;;1.70;;
77589;SDS011;66746;51.328;12.332;2023-07-13T03:24:34;4.40;;;2.35;;
77589;SDS011;66746;51.328;12.332;2023-07-13T03:27:05;4.10;;;1.70;;
77589;SDS011;66746;51.328;12.332;2023-07-13T03:29:35;3.45;;;1.52;;
77589;SDS011;66746;51.328;12.332;2023-07-13T03:32:02;5.70;;;1.92;;
77589;SDS011;66746;51.328;12.332;2023-07-13T03:34:29;2.33;;;1.40;;
77589;SDS011;66746;51.328;12.332;2023-07-13T03:36:57;3.70;;;2.67;;
77589;SDS011;66746;51.328;12.332;2023-07-13T03:39:23;6.53;;;1.88;;
77589;SDS011;66746;51.328;12.332;2023-07-13T03:41:53;5.63;;;1.67;;
77589;SDS011;66746;51.328;12.332;2023-07-13T03:44:20;3.30;;;1.77;;
77589;SDS011;66746;51.328;12.332;2023-07-13T03:46:51;4.60;;;1.98;;
77589;SDS011;66746;51.328;12.332;2023-07-13T03:49:18;2.78;;;1.42;;
77589;SDS011;66746;51.328;12.332;2023-07-13T03:51:44;5.07;;;1.80;;
77589;SDS011;66746;51.328;12.332;2023-07-13T03:54:12;4.70;;;1.90;;
77589;SDS011;66746;51.328;12.332;2023-07-13T03:56:39;6.28;;;2.63;;
77589;SDS011;66746;51.328;12.332;2023-07-13T03:59:07;3.75;;;1.92;;
77589;SDS011;66746;51.328;12.332;2023-07-13T04:01:34;5.63;;;2.58;;
77589;SDS011;66746;51.328;12.332;2023-07-13T04:04:01;4.00;;;1.88;;
77589;SDS011;66746;51.328;12.332;2023-07-13T04:06:30;3.80;;;2.20;;
77589;SDS011;66746;51.328;12.332;2023-07-13T04:08:59;2.50;;;2.20;;
77589;SDS011;66746;51.328;12.332;2023-07-13T04:11:29;4.15;;;2.08;;
77589;SDS011;66746;51.328;12.332;2023-07-13T04:13:58;4.18;;;2.40;;
77589;SDS011;66746;51.328;12.332;2023-07-13T04:16:25;4.75;;;2.15;;
77589;SDS011;66746;51.328;12.332;2023-07-13T04:18:52;2.45;;;2.08;;
77589;SDS011;66746;51.328;12.332;2023-07-13T04:21:19;4.22;;;1.98;;
77589;SDS011;66746;51.328;12.332;2023-07-13T04:23:45;2.78;;;2.40;;
77589;SDS011;66746;51.328;12.332;2023-07-13T04:26:12;3.03;;;2.17;;
77589;SDS011;66746;51.328;12.332;2023-07-13T04:28:40;3.90;;;1.92;;
77589;SDS011;66746;51.328;12.332;2023-07-13T04:31:07;3.78;;;2.65;;
77589;SDS011;66746;51.328;12.332;2023-07-13T04:33:33;3.42;;;2.17;;
77589;SDS011;66746;51.328;12.332;2023-07-13T04:36:00;4.13;;;2.78;;
77589;SDS011;66746;51.328;12.332;2023-07-13T04:38:27;4.43;;;2.13;;
77589;SDS011;66746;51.328;12.332;2023-07-13T04:40:56;4.03;;;2.03;;
77589;SDS011;66746;51.328;12.332;2023-07-13T04:43:24;5.38;;;2.80;;
77589;SDS011;66746;51.328;12.332;2023-07-13T04:45:53;4.38;;;2.75;;
77589;SDS011;66746;51.328;12.332;2023-07-13T04:48:20;3.53;;;2.40;;
77589;SDS011;66746;51.328;12.332;2023-07-13T04:50:47;4.93;;;3.05;;
77589;SDS011;66746;51.328;12.332;2023-07-13T04:53:20;4.13;;;2.33;;
77589;SDS011;66746;51.328;12.332;2023-07-13T04:55:46;4.10;;;2.00;;
77589;SDS011;66746;51.328;12.332;2023-07-13T04:58:13;4.07;;;2.90;;
77589;SDS011;66746;51.328;12.332;2023-07-13T05:00:39;3.83;;;2.47;;
77589;SDS011;66746;51.328;12.332;2023-07-13T05:03:07;4.15;;;3.70;;
77589;SDS011;66746;51.328;12.332;2023-07-13T05:05:34;4.22;;;3.50;;
77589;SDS011;66746;51.328;12.332;2023-07-13T05:08:01;5.93;;;2.67;;
77589;SDS011;66746;51.328;12.332;2023-07-13T05:10:27;3.15;;;2.22;;
77589;SDS011;66746;51.328;12.332;2023-07-13T05:12:54;4.00;;;2.33;;
77589;SDS011;66746;51.328;12.332;2023-07-13T05:15:21;3.70;;;2.30;;
77589;SDS011;66746;51.328;12.332;2023-07-13T05:17:48;4.68;;;2.45;;
77589;SDS011;66746;51.328;12.332;2023-07-13T05:20:17;4.53;;;2.65;;
77589;SDS011;66746;51.328;12.332;2023-07-13T05:22:44;3.35;;;1.90;;
77589;SDS011;66746;51.328;12.332;2023-07-13T05:25:11;5.30;;;1.98;;
77589;SDS011;66746;51.328;12.332;2023-07-13T05:27:38;4.75;;;2.20;;
77589;SDS011;66746;51.328;12.332;2023-07-13T05:30:05;3.38;;;1.92;;
77589;SDS011;66746;51.328;12.332;2023-07-13T05:32:32;4.72;;;2.50;;
77589;SDS011;66746;51.328;12.332;2023-07-13T05:34:59;8.02;;;2.58;;
77589;SDS011;66746;51.328;12.332;2023-07-13T05:37:27;4.28;;;2.58;;
77589;SDS011;66746;51.328;12.332;2023-07-13T05:39:53;3.42;;;1.88;;
77589;SDS011;66746;51.328;12.332;2023-07-13T05:42:20;4.32;;;2.05;;
77589;SDS011;66746;51.328;12.332;2023-07-13T05:44:46;3.67;;;2.65;;
77589;SDS011;66746;51.328;12.332;2023-07-13T05:47:12;2.45;;;2.25;;
77589;SDS011;66746;51.328;12.332;2023-07-13T05:49:39;5.28;;;1.45;;
77589;SDS011;66746;51.328;12.332;2023-07-13T05:52:06;4.22;;;2.08;;
77589;SDS011;66746;51.328;12.332;2023-07-13T05:54:35;3.35;;;1.70;;
77589;SDS011;66746;51.328;12.332;2023-07-13T05:57:01;5.32;;;1.80;;
77589;SDS011;66746;51.328;12.332;2023-07-13T05:59:29;2.75;;;1.63;;
77589;SDS011;66746;51.328;12.332;2023-07-13T06:01:55;5.30;;;2.10;;
77589;SDS011;66746;51.328;12.332;2023-07-13T06:04:22;2.42;;;1.63;;
77589;SDS011;66746;51.328;12.332;2023-07-13T06:06:48;4.05;;;1.60;;
77589;SDS011;66746;51.328;12.332;2023-07-13T06:09:15;6.25;;;2.00;;
77589;SDS011;66746;51.328;12.332;2023-07-13T06:11:43;3.88;;;2.15;;
77589;SDS011;66746;51.328;12.332;2023-07-13T06:14:09;2.67;;;1.63;;
77589;SDS011;66746;51.328;12.332;2023-07-13T06:16:36;3.22;;;1.85;;
77589;SDS011;66746;51.328;12.332;2023-07-13T06:19:02;3.47;;;1.52;;
77589;SDS011;66746;51.328;12.332;2023-07-13T06:21:29;4.13;;;2.47;;
77589;SDS011;66746;51.328;12.332;2023-07-13T06:23:55;4.05;;;1.63;;
77589;SDS011;66746;51.328;12.332;2023-07-13T06:26:22;6.85;;;1.40;;
77589;SDS011;66746;51.328;12.332;2023-07-13T06:28:50;3.33;;;1.50;;
77589;SDS011;66746;51.328;12.332;2023-07-13T06:31:16;5.05;;;1.42;;
77589;SDS011;66746;51.328;12.332;2023-07-13T06:33:45;3.75;;;1.67;;
77589;SDS011;66746;51.328;12.332;2023-07-13T06:36:12;5.60;;;1.98;;
77589;SDS011;66746;51.328;12.332;2023-07-13T06:38:38;4.00;;;1.85;;
77589;SDS011;66746;51.328;12.332;2023-07-13T06:41:05;8.27;;;2.22;;
77589;SDS011;66746;51.328;12.332;2023-07-13T06:43:32;6.47;;;2.17;;
77589;SDS011;66746;51.328;12.332;2023-07-13T06:46:00;6.22;;;1.95;;
77589;SDS011;66746;51.328;12.332;2023-07-13T06:48:27;4.18;;;2.20;;
77589;SDS011;66746;51.328;12.332;2023-07-13T06:50:53;6.05;;;2.25;;
77589;SDS011;66746;51.328;12.332;2023-07-13T06:53:20;2.47;;;1.23;;
77589;SDS011;66746;51.328;12.332;2023-07-13T06:55:47;3.40;;;1.80;;
77589;SDS011;66746;51.328;12.332;2023-07-13T06:58:15;4.93;;;1.52;;
77589;SDS011;66746;51.328;12.332;2023-07-13T07:00:42;3.10;;;1.80;;
77589;SDS011;66746;51.328;12.332;2023-07-13T07:03:10;4.43;;;1.75;;
77589;SDS011;66746;51.328;12.332;2023-07-13T07:05:37;3.25;;;1.52;;
77589;SDS011;66746;51.328;12.332;2023-07-13T07:08:04;10.20;;;2.08;;
77589;SDS011;66746;51.328;12.332;2023-07-13T07:10:30;3.45;;;1.75;;
77589;SDS011;66746;51.328;12.332;2023-07-13T07:13:00;2.90;;;1.00;;
77589;SDS011;66746;51.328;12.332;2023-07-13T07:15:27;5.22;;;1.60;;
77589;SDS011;66746;51.328;12.332;2023-07-13T07:17:54;5.43;;;1.58;;
77589;SDS011;66746;51.328;12.332;2023-07-13T07:20:22;3.60;;;1.77;;
77589;SDS011;66746;51.328;12.332;2023-07-13T07:22:49;6.60;;;3.38;;
77589;SDS011;66746;51.328;12.332;2023-07-13T07:25:15;3.00;;;1.80;;
77589;SDS011;66746;51.328;12.332;2023-07-13T07:27:42;4.40;;;2.28;;
77589;SDS011;66746;51.328;12.332;2023-07-13T07:30:12;2.70;;;1.38;;
77589;SDS011;66746;51.328;12.332;2023-07-13T07:32:41;3.47;;;1.30;;
77589;SDS011;66746;51.328;12.332;2023-07-13T07:35:11;4.22;;;2.30;;
77589;SDS011;66746;51.328;12.332;2023-07-13T07:37:39;7.78;;;1.92;;
77589;SDS011;66746;51.328;12.332;2023-07-13T07:40:08;2.33;;;1.08;;
77589;SDS011;66746;51.328;12.332;2023-07-13T07:42:38;4.80;;;1.45;;
77589;SDS011;66746;51.328;12.332;2023-07-13T07:45:04;3.15;;;1.15;;
77589;SDS011;66746;51.328;12.332;2023-07-13T07:47:32;2.03;;;1.00;;
77589;SDS011;66746;51.328;12.332;2023-07-13T07:49:58;2.67;;;0.95;;
77589;SDS011;66746;51.328;12.332;2023-07-13T07:52:25;1.98;;;1.10;;
77589;SDS011;66746;51.328;12.332;2023-07-13T07:54:52;4.07;;;1.23;;
77589;SDS011;66746;51.328;12.332;2023-07-13T07:57:22;5.57;;;0.90;;
77589;SDS011;66746;51.328;12.332;2023-07-13T07:59:51;4.50;;;1.35;;
77589;SDS011;66746;51.328;12.332;2023-07-13T08:02:21;2.55;;;1.23;;
77589;SDS011;66746;51.328;12.332;2023-07-13T08:04:50;2.05;;;1.25;;
77589;SDS011;66746;51.328;12.332;2023-07-13T08:07:20;4.07;;;1.25;;
77589;SDS011;66746;51.328;12.332;2023-07-13T08:09:46;4.43;;;1.42;;
77589;SDS011;66746;51.328;12.332;2023-07-13T08:12:14;3.38;;;1.52;;
77589;SDS011;66746;51.328;12.332;2023-07-13T08:14:43;2.67;;;1.55;;
77589;SDS011;66746;51.328;12.332;2023-07-13T08:17:18;4.57;;;1.52;;
77589;SDS011;66746;51.328;12.332;2023-07-13T08:19:45;3.60;;;1.27;;
77589;SDS011;66746;51.328;12.332;2023-07-13T08:22:12;4.78;;;1.55;;
77589;SDS011;66746;51.328;12.332;2023-07-13T08:24:39;1.60;;;1.10;;
77589;SDS011;66746;51.328;12.332;2023-07-13T08:27:05;4.35;;;1.40;;
77589;SDS011;66746;51.328;12.332;2023-07-13T08:29:48;4.32;;;2.25;;
77589;SDS011;66746;51.328;12.332;2023-07-13T08:32:15;4.55;;;1.30;;
77589;SDS011;66746;51.328;12.332;2023-07-13T08:34:42;3.90;;;1.02;;
77589;SDS011;66746;51.328;12.332;2023-07-13T08:37:09;6.07;;;0.90;;
77589;SDS011;66746;51.328;12.332;2023-07-13T08:39:35;2.40;;;1.17;;
77589;SDS011;66746;51.328;12.332;2023-07-13T08:42:03;3.70;;;1.40;;
77589;SDS011;66746;51.328;12.332;2023-07-13T08:44:38;2.95;;;1.02;;
77589;SDS011;66746;51.328;12.332;2023-07-13T08:47:15;5.47;;;1.17;;
77589;SDS011;66746;51.328;12.332;2023-07-13T08:49:42;4.43;;;1.15;;
77589;SDS011;66746;51.328;12.332;2023-07-13T08:52:11;4.57;;;1.27;;
77589;SDS011;66746;51.328;12.332;2023-07-13T08:54:45;4.13;;;1.33;;
77589;SDS011;66746;51.328;12.332;2023-07-13T08:57:17;4.05;;;1.60;;
77589;SDS011;66746;51.328;12.332;2023-07-13T08:59:46;5.05;;;1.23;;
77589;SDS011;66746;51.328;12.332;2023-07-13T09:02:17;3.75;;;1.25;;
77589;SDS011;66746;51.328;12.332;2023-07-13T09:04:53;3.72;;;0.98;;
77589;SDS011;66746;51.328;12.332;2023-07-13T09:07:27;7.28;;;1.33;;
77589;SDS011;66746;51.328;12.332;2023-07-13T09:10:05;3.20;;;1.02;;
77589;SDS011;66746;51.328;12.332;2023-07-13T09:12:40;2.88;;;1.30;;
77589;SDS011;66746;51.328;12.332;2023-07-13T09:15:24;2.90;;;1.23;;
77589;SDS011;66746;51.328;12.332;2023-07-13T09:17:55;4.40;;;1.10;;
77589;SDS011;66746;51.328;12.332;2023-07-13T09:20:27;4.43;;;1.50;;
77589;SDS011;66746;51.328;12.332;2023-07-13T09:22:57;3.75;;;1.33;;
77589;SDS011;66746;51.328;12.332;2023-07-13T09:25:27;3.38;;;1.65;;
77589;SDS011;66746;51.328;12.332;2023-07-13T09:27:58;3.92;;;1.40;;
77589;SDS011;66746;51.328;12.332;2023-07-13T09:30:30;5.00;;;1.35;;
77589;SDS011;66746;51.328;12.332;2023-07-13T09:33:04;2.30;;;0.98;;
77589;SDS011;66746;51.328;12.332;2023-07-13T09:35:31;6.00;;;1.67;;
77589;SDS011;66746;51.328;12.332;2023-07-13T09:37:58;3.92;;;1.25;;
77589;SDS011;66746;51.328;12.332;2023-07-13T09:40:30;3.13;;;1.27;;
77589;SDS011;66746;51.328;12.332;2023-07-13T09:43:05;4.38;;;1.38;;
77589;SDS011;66746;51.328;12.332;2023-07-13T09:45:34;3.40;;;1.30;;
77589;SDS011;66746;51.328;12.332;2023-07-13T09:48:05;3.85;;;1.27;;
77589;SDS011;66746;51.328;12.332;2023-07-13T09:50:33;5.70;;;1.42;;
77589;SDS011;66746;51.328;12.332;2023-07-13T09:53:00;2.72;;;1.17;;
77589;SDS011;66746;51.328;12.332;2023-07-13T09:55:28;3.63;;;1.48;;
77589;SDS011;66746;51.328;12.332;2023-07-13T09:57:56;4.00;;;1.75;;
77589;SDS011;66746;51.328;12.332;2023-07-13T10:00:24;4.63;;;1.80;;
77589;SDS011;66746;51.328;12.332;2023-07-13T10:02:59;4.40;;;1.58;;
77589;SDS011;66746;51.328;12.332;2023-07-13T10:05:29;2.22;;;1.27;;
77589;SDS011;66746;51.328;12.332;2023-07-13T10:08:04;4.50;;;2.05;;
77589;SDS011;66746;51.328;12.332;2023-07-13T10:10:30;5.35;;;1.55;;
77589;SDS011;66746;51.328;12.332;2023-07-13T10:12:56;3.67;;;0.98;;
77589;SDS011;66746;51.328;12.332;2023-07-13T10:15:23;3.50;;;1.45;;
77589;SDS011;66746;51.328;12.332;2023-07-13T10:17:52;5.07;;;1.02;;
77589;SDS011;66746;51.328;12.332;2023-07-13T10:20:21;2.47;;;1.38;;
77589;SDS011;66746;51.328;12.332;2023-07-13T10:22:50;2.75;;;0.95;;
77589;SDS011;66746;51.328;12.332;2023-07-13T10:25:21;2.55;;;1.15;;
77589;SDS011;66746;51.328;12.332;2023-07-13T10:27:50;5.95;;;0.93;;
77589;SDS011;66746;51.328;12.332;2023-07-13T10:30:20;3.55;;;1.15;;
77589;SDS011;66746;51.328;12.332;2023-07-13T10:32:50;3.40;;;1.48;;
77589;SDS011;66746;51.328;12.332;2023-07-13T10:35:17;5.35;;;1.52;;
77589;SDS011;66746;51.328;12.332;2023-07-13T10:37:47;5.38;;;1.15;;
77589;SDS011;66746;51.328;12.332;2023-07-13T10:40:19;4.50;;;1.77;;
77589;SDS011;66746;51.328;12.332;2023-07-13T10:42:51;3.10;;;1.65;;
77589;SDS011;66746;51.328;12.332;2023-07-13T10:45:22;6.55;;;1.13;;
77589;SDS011;66746;51.328;12.332;2023-07-13T10:47:50;5.22;;;1.55;;
77589;SDS011;66746;51.328;12.332;2023-07-13T10:50:19;2.53;;;0.85;;
77589;SDS011;66746;51.328;12.332;2023-07-13T10:52:48;3.53;;;1.15;;
77589;SDS011;66746;51.328;12.332;2023-07-13T10:55:37;4.05;;;1.65;;
77589;SDS011;66746;51.328;12.332;2023-07-13T10:58:21;2.50;;;1.33;;
77589;SDS011;66746;51.328;12.332;2023-07-13T11:00:49;1.60;;;1.33;;
77589;SDS011;66746;51.328;12.332;2023-07-13T11:03:24;2.40;;;1.38;;
77589;SDS011;66746;51.328;12.332;2023-07-13T11:06:04;1.50;;;1.15;;
77589;SDS011;66746;51.328;12.332;2023-07-13T11:08:37;2.15;;;0.82;;
77589;SDS011;66746;51.328;12.332;2023-07-13T11:11:36;4.00;;;1.42;;
77589;SDS011;66746;51.328;12.332;2023-07-13T11:14:04;1.75;;;0.50;;
77589;SDS011;66746;51.328;12.332;2023-07-13T11:20:42;3.55;;;1.08;;
77589;SDS011;66746;51.328;12.332;2023-07-13T11:29:27;6.93;;;1.45;;
77589;SDS011;66746;51.328;12.332;2023-07-13T11:32:45;1.38;;;0.82;;
77589;SDS011;66746;51.328;12.332;2023-07-13T11:35:33;3.30;;;1.15;;
77589;SDS011;66746;51.328;12.332;2023-07-13T11:38:37;1.98;;;0.93;;
77589;SDS011;66746;51.328;12.332;2023-07-13T11:41:16;2.53;;;0.88;;
77589;SDS011;66746;51.328;12.332;2023-07-13T11:44:16;2.85;;;0.85;;
77589;SDS011;66746;51.328;12.332;2023-07-13T11:46:44;2.65;;;0.68;;
77589;SDS011;66746;51.328;12.332;2023-07-13T11:49:22;5.53;;;0.52;;
77589;SDS011;66746;51.328;12.332;2023-07-13T11:55:32;1.98;;;0.80;;
77589;SDS011;66746;51.328;12.332;2023-07-13T11:58:34;2.47;;;0.95;;
77589;SDS011;66746;51.328;12.332;2023-07-13T12:01:06;1.40;;;1.05;;
77589;SDS011;66746;51.328;12.332;2023-07-13T12:03:33;5.50;;;0.95;;
77589;SDS011;66746;51.328;12.332;2023-07-13T12:06:26;5.75;;;0.88;;
77589;SDS011;66746;51.328;12.332;2023-07-13T12:09:27;1.83;;;0.85;;
77589;SDS011;66746;51.328;12.332;2023-07-13T12:12:00;1.08;;;0.68;;
77589;SDS011;66746;51.328;12.332;2023-07-13T12:14:37;3.97;;;0.85;;
77589;SDS011;66746;51.328;12.332;2023-07-13T12:17:15;2.53;;;0.65;;
77589;SDS011;66746;51.328;12.332;2023-07-13T12:20:03;1.70;;;0.43;;
77589;SDS011;66746;51.328;12.332;2023-07-13T12:23:05;2.03;;;1.00;;
77589;SDS011;66746;51.328;12.332;2023-07-13T12:25:49;1.95;;;0.70;;
77589;SDS011;66746;51.328;12.332;2023-07-13T12:28:20;1.10;;;0.98;;
77589;SDS011;66746;51.328;12.332;2023-07-13T12:30:50;1.92;;;0.70;;
77589;SDS011;66746;51.328;12.332;2023-07-13T12:33:28;4.18;;;1.02;;
77589;SDS011;66746;51.328;12.332;2023-07-13T12:35:55;1.25;;;0.88;;
77589;SDS011;66746;51.328;12.332;2023-07-13T12:38:24;1.73;;;0.70;;
77589;SDS011;66746;51.328;12.332;2023-07-13T12:40:51;1.08;;;0.45;;
77589;SDS011;66746;51.328;12.332;2023-07-13T12:43:19;1.65;;;0.47;;
77589;SDS011;66746;51.328;12.332;2023-07-13T12:45:57;4.30;;;0.65;;
77589;SDS011;66746;51.328;12.332;2023-07-13T12:48:25;1.77;;;1.00;;
77589;SDS011;66746;51.328;12.332;2023-07-13T12:51:11;2.20;;;0.82;;
77589;SDS011;66746;51.328;12.332;2023-07-13T12:53:40;1.75;;;0.50;;
77589;SDS011;66746;51.328;12.332;2023-07-13T12:56:11;5.05;;;0.63;;
77589;SDS011;66746;51.328;12.332;2023-07-13T13:01:12;1.85;;;0.52;;
77589;SDS011;66746;51.328;12.332;2023-07-13T13:03:44;2.40;;;0.50;;
77589;SDS011;66746;51.328;12.332;2023-07-13T13:06:22;2.75;;;0.45;;
77589;SDS011;66746;51.328;12.332;2023-07-13T13:08:51;1.55;;;0.63;;
77589;SDS011;66746;51.328;12.332;2023-07-13T13:11:20;1.40;;;0.73;;
77589;SDS011;66746;51.328;12.332;2023-07-13T13:13:47;2.40;;;0.82;;
77589;SDS011;66746;51.328;12.332;2023-07-13T13:16:16;2.55;;;1.17;;
77589;SDS011;66746;51.328;12.332;2023-07-13T13:18:55;2.40;;;0.93;;
77589;SDS011;66746;51.328;12.332;2023-07-13T13:21:25;1.58;;;0.55;;
77589;SDS011;66746;51.328;12.332;2023-07-13T13:23:51;2.30;;;0.98;;
77589;SDS011;66746;51.328;12.332;2023-07-13T13:26:19;1.13;;;0.63;;
77589;SDS011;66746;51.328;12.332;2023-07-13T13:28:50;2.83;;;0.75;;
77589;SDS011;66746;51.328;12.332;2023-07-13T13:31:16;3.05;;;0.60;;
77589;SDS011;66746;51.328;12.332;2023-07-13T13:33:44;2.88;;;0.68;;
77589;SDS011;66746;51.328;12.332;2023-07-13T13:36:15;3.28;;;0.57;;
77589;SDS011;66746;51.328;12.332;2023-07-13T13:38:43;2.15;;;0.85;;
77589;SDS011;66746;51.328;12.332;2023-07-13T13:41:11;1.75;;;0.85;;
77589;SDS011;66746;51.328;12.332;2023-07-13T13:43:39;1.40;;;0.90;;
77589;SDS011;66746;51.328;12.332;2023-07-13T13:46:11;1.73;;;0.43;;
77589;SDS011;66746;51.328;12.332;2023-07-13T13:48:41;3.95;;;0.98;;
77589;SDS011;66746;51.328;12.332;2023-07-13T13:51:12;3.08;;;0.93;;
77589;SDS011;66746;51.328;12.332;2023-07-13T13:53:41;2.95;;;0.85;;
77589;SDS011;66746;51.328;12.332;2023-07-13T13:56:09;4.97;;;1.10;;
77589;SDS011;66746;51.328;12.332;2023-07-13T13:58:36;1.40;;;0.50;;
77589;SDS011;66746;51.328;12.332;2023-07-13T14:01:02;2.10;;;0.55;;
77589;SDS011;66746;51.328;12.332;2023-07-13T14:03:29;1.17;;;0.63;;
77589;SDS011;66746;51.328;12.332;2023-07-13T14:05:59;1.98;;;0.80;;
77589;SDS011;66746;51.328;12.332;2023-07-13T14:08:26;4.05;;;0.93;;
77589;SDS011;66746;51.328;12.332;2023-07-13T14:10:53;2.33;;;1.13;;
77589;SDS011;66746;51.328;12.332;2023-07-13T14:13:26;2.42;;;1.00;;
77589;SDS011;66746;51.328;12.332;2023-07-13T14:16:04;2.15;;;0.63;;
77589;SDS011;66746;51.328;12.332;2023-07-13T14:18:37;1.60;;;0.90;;
77589;SDS011;66746;51.328;12.332;2023-07-13T14:21:08;2.72;;;0.88;;
77589;SDS011;66746;51.328;12.332;2023-07-13T14:23:39;2.00;;;0.63;;
77589;SDS011;66746;51.328;12.332;2023-07-13T14:26:09;2.00;;;0.93;;
77589;SDS011;66746;51.328;12.332;2023-07-13T14:28:40;1.92;;;0.77;;
77589;SDS011;66746;51.328;12.332;2023-07-13T14:31:08;3.05;;;0.85;;
77589;SDS011;66746;51.328;12.332;2023-07-13T14:33:35;3.10;;;0.85;;
77589;SDS011;66746;51.328;12.332;2023-07-13T14:36:02;2.03;;;0.75;;
77589;SDS011;66746;51.328;12.332;2023-07-13T14:38:29;2.97;;;0.82;;
77589;SDS011;66746;51.328;12.332;2023-07-13T14:40:55;2.55;;;0.75;;
77589;SDS011;66746;51.328;12.332;2023-07-13T14:43:24;2.00;;;0.77;;
77589;SDS011;66746;51.328;12.332;2023-07-13T14:45:52;2.67;;;0.60;;
77589;SDS011;66746;51.328;12.332;2023-07-13T14:48:20;1.58;;;0.57;;
77589;SDS011;66746;51.328;12.332;2023-07-13T14:50:50;1.92;;;0.77;;
77589;SDS011;66746;51.328;12.332;2023-07-13T14:53:24;2.80;;;0.82;;
77589;SDS011;66746;51.328;12.332;2023-07-13T14:55:52;1.23;;;0.70;;
77589;SDS011;66746;51.328;12.332;2023-07-13T14:58:19;2.35;;;0.73;;
77589;SDS011;66746;51.328;12.332;2023-07-13T15:00:46;1.92;;;0.52;;
77589;SDS011;66746;51.328;12.332;2023-07-13T15:03:16;3.25;;;0.80;;
77589;SDS011;66746;51.328;12.332;2023-07-13T15:05:46;2.25;;;1.02;;
77589;SDS011;66746;51.328;12.332;2023-07-13T15:08:12;2.45;;;0.57;;